KCHK/CHK METAR and TAF weather

Enter ICAO airport designator
Station Type Date Time Source
KCHK METAR 2019/10/18 06:35 UTC NOAA

KCHK 180635Z AUTO 17004KT 10SM CLR 12/05 A2985 RMK AO2 T01220053


Station Type Date Time Source
KCHK Decoded METAR 2019/10/18 06:35 UTC NOAA

Chickasha, Chickasha Municipal Airport, OK, United States (KCHK) 35-05-46N 097-57-58W
Oct 18, 2019 - 02:35 AM EDT / 2019.10.18 0635 UTC
Wind: from the S (170 degrees) at 5 MPH (4 KT):0
Visibility: 10 mile(s):0
Sky conditions: clear
Temperature: 54.0 F (12.2 C)
Dew Point: 41.5 F (5.3 C)
Relative Humidity: 62%
Pressure (altimeter): 29.85 in. Hg (1010 hPa)
ob: KCHK 180635Z AUTO 17004KT 10SM CLR 12/05 A2985 RMK AO2 T01220053
cycle: 6

Station Type Date Time Source
KCHK TAF UTC NOAA

Error!

Example: see airport list